createdAt,value
2018-09-14T00:02:28.113Z,11.90
2018-09-14T00:04:57.513Z,11.80
2018-09-14T00:07:26.823Z,11.80
2018-09-14T00:09:56.207Z,11.70
2018-09-14T00:12:25.462Z,11.70
2018-09-14T00:14:54.460Z,11.70
2018-09-14T00:17:23.577Z,11.60
2018-09-14T00:19:52.987Z,11.60
2018-09-14T00:22:22.095Z,11.60
2018-09-14T00:24:51.452Z,11.50
2018-09-14T00:27:20.854Z,11.50
2018-09-14T00:29:50.056Z,11.40
2018-09-14T00:32:19.329Z,11.40
2018-09-14T00:34:48.464Z,11.40
2018-09-14T00:37:17.682Z,11.30
2018-09-14T00:39:46.960Z,11.30
2018-09-14T00:42:16.378Z,11.20
2018-09-14T00:44:45.567Z,11.20
2018-09-14T00:47:14.959Z,11.20
2018-09-14T00:49:44.283Z,11.10
2018-09-14T00:52:13.685Z,11.10
2018-09-14T00:54:42.970Z,11.00
2018-09-14T00:57:12.203Z,11.00
2018-09-14T00:59:41.351Z,10.90
2018-09-14T01:02:10.503Z,10.90
2018-09-14T01:04:39.599Z,10.90
2018-09-14T01:07:08.695Z,10.90
2018-09-14T01:09:38.084Z,10.80
2018-09-14T01:12:10.117Z,10.80
2018-09-14T01:14:40.791Z,10.80
2018-09-14T01:17:10.127Z,10.80
2018-09-14T01:19:39.114Z,10.70
2018-09-14T01:22:08.388Z,10.70
2018-09-14T01:24:37.736Z,10.70
2018-09-14T01:27:07.168Z,10.70
2018-09-14T01:29:36.517Z,10.70
2018-09-14T01:32:05.796Z,10.60
2018-09-14T01:34:34.926Z,10.60
2018-09-14T01:37:04.203Z,10.60
2018-09-14T01:39:33.358Z,10.60
2018-09-14T01:42:02.446Z,10.60
2018-09-14T01:44:31.638Z,10.60
2018-09-14T01:47:01.441Z,10.60
2018-09-14T01:49:30.760Z,10.50
2018-09-14T01:51:59.964Z,10.50
2018-09-14T01:54:29.189Z,10.50
2018-09-14T01:56:58.437Z,10.50
2018-09-14T01:59:27.669Z,10.50
2018-09-14T02:01:56.950Z,10.40
2018-09-14T02:04:26.147Z,10.40
2018-09-14T02:06:55.421Z,10.40
2018-09-14T02:09:24.586Z,10.40
2018-09-14T02:11:53.977Z,10.40
2018-09-14T02:14:23.186Z,10.30
2018-09-14T02:16:52.500Z,10.30
2018-09-14T02:19:21.597Z,10.30
2018-09-14T02:21:50.718Z,10.30
2018-09-14T02:24:19.844Z,10.20
2018-09-14T02:26:48.999Z,10.20
2018-09-14T02:29:18.191Z,10.20
2018-09-14T02:31:47.516Z,10.10
2018-09-14T02:34:20.048Z,10.00
2018-09-14T02:36:49.476Z,9.90
2018-09-14T02:39:18.703Z,9.80
2018-09-14T02:41:47.989Z,9.70
2018-09-14T02:44:17.304Z,9.60
2018-09-14T02:46:46.686Z,9.60
2018-09-14T02:49:16.289Z,9.50
2018-09-14T02:51:45.529Z,9.50
2018-09-14T02:54:14.714Z,9.50
2018-09-14T02:56:44.081Z,9.50
2018-09-14T02:59:13.327Z,9.60
2018-09-14T03:01:42.503Z,9.60
2018-09-14T03:04:11.634Z,9.60
2018-09-14T03:06:40.804Z,9.60
2018-09-14T03:09:10.298Z,9.60
2018-09-14T03:11:39.642Z,9.70
2018-09-14T03:14:08.874Z,9.60
2018-09-14T03:16:38.123Z,9.60
2018-09-14T03:19:07.539Z,9.60
2018-09-14T03:21:36.556Z,9.60
2018-09-14T03:24:05.641Z,9.60
2018-09-14T03:26:34.741Z,9.60
2018-09-14T03:29:03.864Z,9.60
2018-09-14T03:31:32.940Z,9.50
2018-09-14T03:34:02.974Z,9.50
2018-09-14T03:36:32.168Z,9.50
2018-09-14T03:39:01.469Z,9.50
2018-09-14T03:41:30.779Z,9.50
2018-09-14T03:43:59.974Z,9.40
2018-09-14T03:46:29.142Z,9.40
2018-09-14T03:48:58.342Z,9.40
2018-09-14T03:51:27.598Z,9.40
2018-09-14T03:53:56.744Z,9.30
2018-09-14T03:56:26.046Z,9.30
2018-09-14T03:58:55.191Z,9.30
2018-09-14T04:01:24.193Z,9.20
2018-09-14T04:03:53.589Z,9.20
2018-09-14T04:06:22.594Z,9.20
2018-09-14T04:08:51.995Z,9.20
2018-09-14T04:11:23.986Z,9.10
2018-09-14T04:13:53.179Z,9.10
2018-09-14T04:16:22.491Z,9.10
2018-09-14T04:18:59.652Z,9.10
2018-09-14T04:21:29.029Z,9.10
2018-09-14T04:23:58.171Z,9.10
2018-09-14T04:26:27.806Z,9.00
2018-09-14T04:28:57.341Z,9.00
2018-09-14T04:31:26.752Z,9.00
2018-09-14T04:33:56.054Z,9.00
2018-09-14T04:36:25.240Z,9.00
2018-09-14T04:38:54.562Z,9.00
2018-09-14T04:41:23.804Z,9.00
2018-09-14T04:43:53.003Z,8.90
2018-09-14T04:46:22.100Z,8.90
2018-09-14T04:48:51.200Z,8.90
2018-09-14T04:51:20.974Z,8.80
2018-09-14T04:53:50.308Z,8.80
2018-09-14T04:56:19.628Z,8.80
2018-09-14T04:58:48.650Z,8.80
2018-09-14T05:01:18.091Z,8.80
2018-09-14T05:03:47.326Z,8.80
2018-09-14T05:06:16.552Z,8.80
2018-09-14T05:08:45.790Z,8.70
2018-09-14T05:11:14.985Z,8.70
2018-09-14T05:13:44.052Z,8.70
2018-09-14T05:16:13.111Z,8.70
2018-09-14T05:18:42.415Z,8.70
2018-09-14T05:21:11.802Z,8.70
2018-09-14T05:23:40.956Z,8.70
2018-09-14T05:26:10.058Z,8.70
2018-09-14T05:28:39.136Z,8.60
2018-09-14T05:31:08.311Z,8.60
2018-09-14T05:33:37.446Z,8.60
2018-09-14T05:36:06.610Z,8.60
2018-09-14T05:38:35.844Z,8.60
2018-09-14T05:41:05.142Z,8.60
2018-09-14T05:43:34.405Z,8.60
2018-09-14T05:46:03.441Z,8.60
2018-09-14T05:48:32.562Z,8.60
2018-09-14T05:51:01.720Z,8.60
2018-09-14T05:53:31.751Z,8.60
2018-09-14T05:56:01.428Z,8.60
2018-09-14T05:58:30.587Z,8.60
2018-09-14T06:00:59.847Z,8.60
2018-09-14T06:03:29.072Z,8.60
2018-09-14T06:05:58.079Z,8.60
2018-09-14T06:08:27.266Z,8.60
2018-09-14T06:10:56.399Z,8.60
2018-09-14T06:13:25.488Z,8.70
2018-09-14T06:15:54.625Z,8.70
2018-09-14T06:18:23.892Z,8.60
2018-09-14T06:20:53.208Z,8.60
2018-09-14T06:23:22.596Z,8.60
2018-09-14T06:25:51.955Z,8.60
2018-09-14T06:28:21.350Z,8.60
2018-09-14T06:30:50.537Z,8.60
2018-09-14T06:33:19.839Z,8.60
2018-09-14T06:35:49.298Z,8.70
2018-09-14T06:38:18.531Z,8.70
2018-09-14T06:40:47.971Z,8.80
2018-09-14T06:43:17.432Z,8.80
2018-09-14T06:45:46.734Z,8.90
2018-09-14T06:48:16.122Z,8.90
2018-09-14T06:50:45.246Z,9.00
2018-09-14T06:53:14.362Z,9.10
2018-09-14T06:55:43.717Z,9.20
2018-09-14T06:58:12.844Z,9.30
2018-09-14T07:00:42.118Z,9.40
2018-09-14T07:03:11.549Z,9.50
2018-09-14T07:05:40.856Z,9.60
2018-09-14T07:08:10.128Z,9.70
2018-09-14T07:10:39.166Z,9.90
2018-09-14T07:13:08.321Z,9.90
2018-09-14T07:15:38.348Z,10.10
2018-09-14T07:18:07.700Z,10.10
2018-09-14T07:20:36.878Z,10.10
2018-09-14T07:23:06.151Z,10.20
2018-09-14T07:25:35.357Z,10.30
2018-09-14T07:28:04.730Z,10.30
2018-09-14T07:30:34.112Z,10.40
2018-09-14T07:33:03.532Z,10.50
2018-09-14T07:35:32.800Z,10.60
2018-09-14T07:38:02.019Z,10.70
2018-09-14T07:40:31.311Z,10.80
2018-09-14T07:43:00.519Z,10.90
2018-09-14T07:45:29.931Z,11.00
2018-09-14T07:47:59.207Z,11.10
2018-09-14T07:50:28.532Z,11.30
2018-09-14T07:52:58.555Z,11.40
2018-09-14T07:55:28.941Z,11.50
2018-09-14T07:57:58.119Z,11.60
2018-09-14T08:00:27.175Z,11.80
2018-09-14T08:02:56.435Z,11.90
2018-09-14T08:05:25.572Z,12.10
2018-09-14T08:07:54.741Z,12.30
2018-09-14T08:10:24.056Z,12.40
2018-09-14T08:12:53.240Z,12.50
2018-09-14T08:15:22.429Z,12.70
2018-09-14T08:17:51.679Z,12.80
2018-09-14T08:20:20.801Z,12.80
2018-09-14T08:22:50.103Z,13.10
2018-09-14T08:25:19.239Z,13.20
2018-09-14T08:27:48.722Z,13.40
2018-09-14T08:30:18.087Z,13.60
2018-09-14T08:32:47.442Z,13.80
2018-09-14T08:35:16.676Z,14.00
2018-09-14T08:37:45.887Z,14.10
2018-09-14T08:40:15.106Z,14.20
2018-09-14T08:42:44.390Z,14.30
2018-09-14T08:45:13.570Z,14.40
2018-09-14T08:47:42.875Z,14.50
2018-09-14T08:50:12.182Z,14.60
2018-09-14T08:52:41.628Z,14.70
2018-09-14T08:55:10.795Z,14.80
2018-09-14T08:57:41.603Z,14.80
2018-09-14T09:00:11.109Z,15.00
2018-09-14T09:02:40.615Z,15.10
2018-09-14T09:05:09.773Z,15.20
2018-09-14T09:07:39.120Z,15.30
2018-09-14T09:10:08.501Z,15.40
2018-09-14T09:12:37.710Z,15.40
2018-09-14T09:15:07.030Z,15.50
2018-09-14T09:17:36.170Z,15.60
2018-09-14T09:20:05.679Z,15.60
2018-09-14T09:22:35.010Z,15.90
2018-09-14T09:25:04.123Z,16.00
2018-09-14T09:27:33.356Z,16.10
2018-09-14T09:30:02.539Z,16.20
2018-09-14T09:32:31.743Z,16.30
2018-09-14T09:35:01.002Z,16.40
2018-09-14T09:37:30.124Z,16.40
2018-09-14T09:39:59.299Z,16.50
2018-09-14T09:42:28.554Z,16.60
2018-09-14T09:44:57.746Z,16.80
2018-09-14T09:47:26.888Z,17.00
2018-09-14T09:49:55.950Z,17.20
2018-09-14T09:52:25.177Z,17.30
2018-09-14T09:54:54.362Z,17.40
2018-09-14T09:57:23.575Z,17.60
2018-09-14T09:59:53.645Z,17.60
2018-09-14T10:02:28.994Z,17.60
2018-09-14T10:05:03.194Z,17.80
2018-09-14T10:07:32.332Z,17.90
2018-09-14T10:10:01.625Z,18.10
2018-09-14T10:12:30.833Z,18.20
2018-09-14T10:15:00.361Z,18.20
2018-09-14T10:17:29.710Z,18.50
2018-09-14T10:19:58.949Z,18.70
2018-09-14T10:22:27.927Z,18.90
2018-09-14T10:24:57.260Z,18.80
2018-09-14T10:27:26.467Z,18.50
2018-09-14T10:29:55.477Z,18.50
2018-09-14T10:32:24.944Z,18.40
2018-09-14T10:34:54.253Z,18.40
2018-09-14T10:37:23.651Z,18.50
2018-09-14T10:39:53.092Z,18.70
2018-09-14T10:42:23.005Z,18.80
2018-09-14T10:44:52.408Z,18.80
2018-09-14T10:47:21.690Z,19.20
2018-09-14T10:49:51.081Z,19.40
2018-09-14T10:52:20.501Z,19.70
2018-09-14T10:54:50.086Z,19.90
2018-09-14T10:57:19.394Z,20.10
2018-09-14T10:59:48.730Z,20.20
2018-09-14T11:02:18.028Z,20.20
2018-09-14T11:04:47.427Z,20.40
2018-09-14T11:07:16.577Z,20.60
2018-09-14T11:09:49.099Z,20.60
2018-09-14T11:12:18.342Z,20.40
2018-09-14T11:14:47.725Z,19.90
2018-09-14T11:17:17.074Z,19.70
2018-09-14T11:19:46.255Z,19.70
2018-09-14T11:22:15.610Z,20.00
2018-09-14T11:24:45.074Z,20.30
2018-09-14T11:27:14.301Z,20.50
2018-09-14T11:29:43.520Z,20.40
2018-09-14T11:32:12.935Z,20.10
2018-09-14T11:34:42.253Z,19.70
2018-09-14T11:37:11.562Z,19.50
2018-09-14T11:39:40.690Z,19.40
2018-09-14T11:42:10.121Z,19.40
2018-09-14T11:44:39.288Z,19.60
2018-09-14T11:47:08.635Z,19.70
2018-09-14T11:49:37.818Z,19.80
2018-09-14T11:52:07.316Z,19.70
2018-09-14T11:54:36.644Z,19.60
2018-09-14T11:57:05.905Z,19.90
2018-09-14T11:59:35.212Z,20.10
2018-09-14T12:02:06.873Z,20.40
2018-09-14T12:04:36.258Z,20.50
2018-09-14T12:07:05.494Z,20.80
2018-09-14T12:09:35.067Z,20.80
2018-09-14T12:12:04.397Z,20.90
2018-09-14T12:14:33.793Z,21.00
2018-09-14T12:17:03.325Z,21.20
2018-09-14T12:19:32.699Z,21.50
2018-09-14T12:22:01.837Z,21.70
2018-09-14T12:24:31.122Z,21.80
2018-09-14T12:27:00.551Z,21.30
2018-09-14T12:29:30.031Z,21.30
2018-09-14T12:31:59.358Z,21.30
2018-09-14T12:34:28.780Z,21.20
2018-09-14T12:36:58.166Z,20.70
2018-09-14T12:39:27.414Z,20.60
2018-09-14T12:41:56.589Z,20.40
2018-09-14T12:44:26.075Z,20.40
2018-09-14T12:46:55.304Z,20.40
2018-09-14T12:49:24.632Z,20.40
2018-09-14T12:51:53.952Z,20.80
2018-09-14T12:54:23.218Z,20.80
2018-09-14T12:56:52.463Z,20.80
2018-09-14T12:59:21.623Z,20.70
2018-09-14T13:01:50.866Z,20.60
2018-09-14T13:04:21.517Z,20.40
2018-09-14T13:06:51.041Z,20.30
2018-09-14T13:09:20.331Z,20.30
2018-09-14T13:11:49.738Z,20.20
2018-09-14T13:14:21.100Z,20.10
2018-09-14T13:16:50.889Z,20.10
2018-09-14T13:19:20.731Z,20.10
2018-09-14T13:21:50.230Z,20.00
2018-09-14T13:24:19.671Z,20.10
2018-09-14T13:26:48.851Z,20.40
2018-09-14T13:29:18.202Z,20.70
2018-09-14T13:34:38.266Z,21.00
2018-09-14T13:37:07.735Z,20.70
2018-09-14T13:39:36.896Z,20.60
2018-09-14T13:42:07.330Z,21.00
2018-09-14T13:44:36.436Z,21.40
2018-09-14T13:47:06.121Z,21.60
2018-09-14T13:49:36.734Z,21.70
2018-09-14T13:52:06.181Z,21.50
2018-09-14T13:54:35.525Z,21.30
2018-09-14T13:57:05.025Z,21.10
2018-09-14T13:59:34.329Z,21.00
2018-09-14T14:02:03.515Z,20.90
2018-09-14T14:04:33.751Z,21.00
2018-09-14T14:07:03.062Z,21.30
2018-09-14T14:09:32.434Z,21.50
2018-09-14T14:12:01.557Z,21.50
2018-09-14T14:14:30.649Z,21.70
2018-09-14T14:16:59.986Z,22.00
2018-09-14T14:19:28.903Z,22.10
2018-09-14T14:21:58.159Z,22.30
2018-09-14T14:24:27.328Z,22.00
2018-09-14T14:26:56.494Z,21.60
2018-09-14T14:29:25.759Z,21.40
2018-09-14T14:31:54.929Z,21.40
2018-09-14T14:34:25.077Z,21.70
2018-09-14T14:36:54.104Z,21.70
2018-09-14T14:39:22.375Z,21.60
2018-09-14T14:41:50.627Z,21.60
2018-09-14T14:44:20.028Z,21.60
2018-09-14T14:46:50.955Z,21.60
2018-09-14T14:49:20.763Z,21.60
2018-09-14T14:51:50.702Z,21.70
2018-09-14T14:54:19.850Z,21.60
2018-09-14T14:56:49.482Z,21.60
2018-09-14T14:59:18.623Z,21.70
2018-09-14T15:01:47.797Z,21.50
2018-09-14T15:04:17.773Z,21.60
2018-09-14T15:06:46.938Z,21.40
2018-09-14T15:09:16.791Z,21.50
2018-09-14T15:11:46.153Z,21.50
2018-09-14T15:14:15.278Z,21.30
2018-09-14T15:16:44.980Z,21.30
2018-09-14T15:19:14.231Z,21.30
2018-09-14T15:21:43.221Z,21.40
2018-09-14T15:24:12.375Z,21.30
2018-09-14T15:26:41.436Z,21.30
2018-09-14T15:29:10.866Z,21.30
2018-09-14T15:31:40.102Z,21.20
2018-09-14T15:34:09.289Z,21.20
2018-09-14T15:36:38.390Z,21.20
2018-09-14T15:39:10.058Z,21.40
2018-09-14T15:41:39.330Z,21.30
2018-09-14T15:44:08.662Z,21.30
2018-09-14T15:46:38.041Z,21.10
2018-09-14T15:49:07.829Z,21.20
2018-09-14T15:51:37.015Z,21.00
2018-09-14T15:54:06.607Z,20.80
2018-09-14T15:56:35.816Z,20.70
2018-09-14T15:59:05.101Z,20.60
2018-09-14T16:01:34.688Z,20.60
2018-09-14T16:04:04.021Z,20.50
2018-09-14T16:06:35.246Z,20.60
2018-09-14T16:09:05.002Z,20.60
2018-09-14T16:11:34.154Z,20.50
2018-09-14T16:14:03.291Z,20.30
2018-09-14T16:16:33.533Z,20.20
2018-09-14T16:19:02.936Z,20.00
2018-09-14T16:21:32.130Z,19.90
2018-09-14T16:24:01.618Z,19.80
2018-09-14T16:26:30.933Z,19.70
2018-09-14T16:29:00.017Z,19.70
2018-09-14T16:31:29.333Z,19.70
2018-09-14T16:33:58.515Z,19.60
2018-09-14T16:36:28.192Z,19.50
2018-09-14T16:38:57.227Z,19.50
2018-09-14T16:41:26.618Z,19.40
2018-09-14T16:43:56.227Z,19.40
2018-09-14T16:46:25.512Z,19.40
2018-09-14T16:48:54.735Z,19.40
2018-09-14T16:51:23.684Z,19.30
2018-09-14T16:53:52.835Z,19.20
2018-09-14T16:56:21.933Z,19.10
2018-09-14T16:58:51.595Z,19.10
2018-09-14T17:01:25.275Z,19.10
2018-09-14T17:03:54.435Z,19.00
2018-09-14T17:06:23.646Z,19.00
2018-09-14T17:08:54.382Z,18.90
2018-09-14T17:11:23.511Z,18.90
2018-09-14T17:13:52.821Z,18.80
2018-09-14T17:16:21.945Z,18.80
2018-09-14T17:18:51.064Z,18.70
2018-09-14T17:21:20.173Z,18.70
2018-09-14T17:23:49.303Z,18.70
2018-09-14T17:26:19.413Z,18.60
2018-09-14T17:28:48.549Z,18.60
2018-09-14T17:31:18.589Z,18.50
2018-09-14T17:33:48.379Z,18.50
2018-09-14T17:36:18.058Z,18.50
2018-09-14T17:38:47.084Z,18.40
2018-09-14T17:41:16.601Z,18.30
2018-09-14T17:43:45.747Z,18.20
2018-09-14T17:46:15.515Z,18.00
2018-09-14T17:48:45.467Z,18.00
2018-09-14T17:51:14.676Z,17.90
2018-09-14T17:53:43.935Z,17.90
2018-09-14T17:56:13.810Z,17.80
2018-09-14T17:58:43.048Z,17.70
2018-09-14T18:01:12.272Z,17.70
2018-09-14T18:03:41.367Z,17.60
2018-09-14T18:06:10.748Z,17.50
2018-09-14T18:08:39.652Z,17.50
2018-09-14T18:11:08.752Z,17.50
2018-09-14T18:13:37.903Z,17.30
2018-09-14T18:16:06.986Z,17.30
2018-09-14T18:18:36.084Z,17.20
2018-09-14T18:21:05.228Z,17.20
2018-09-14T18:23:35.034Z,17.20
2018-09-14T18:26:04.173Z,17.20
2018-09-14T18:28:33.375Z,17.20
2018-09-14T18:31:02.466Z,17.20
2018-09-14T18:33:31.694Z,17.20
2018-09-14T18:36:00.699Z,17.20
2018-09-14T18:38:29.913Z,17.00
2018-09-14T18:40:59.114Z,17.00
2018-09-14T18:43:28.496Z,16.90
2018-09-14T18:45:58.048Z,16.80
2018-09-14T18:48:27.214Z,16.70
2018-09-14T18:50:56.740Z,16.70
2018-09-14T18:53:25.861Z,16.60
2018-09-14T18:55:54.967Z,16.60
2018-09-14T18:58:24.326Z,16.50
2018-09-14T19:00:54.039Z,16.50
2018-09-14T19:03:23.081Z,16.50
2018-09-14T19:05:53.631Z,16.40
2018-09-14T19:08:23.094Z,16.30
2018-09-14T19:10:52.832Z,16.20
2018-09-14T19:13:22.080Z,16.20
2018-09-14T19:15:51.472Z,16.20
2018-09-14T19:18:20.795Z,16.20
2018-09-14T19:20:50.077Z,16.10
2018-09-14T19:23:19.299Z,16.10
2018-09-14T19:25:49.412Z,16.00
2018-09-14T19:28:18.667Z,16.00
2018-09-14T19:30:47.760Z,15.90
2018-09-14T19:33:17.009Z,15.90
2018-09-14T19:35:46.034Z,15.90
2018-09-14T19:38:15.403Z,15.90
2018-09-14T19:40:44.546Z,15.80
2018-09-14T19:43:13.722Z,15.80
2018-09-14T19:45:43.072Z,15.70
2018-09-14T19:48:12.242Z,15.70
2018-09-14T19:50:41.198Z,15.60
2018-09-14T19:53:10.256Z,15.60
2018-09-14T19:55:39.385Z,15.60
2018-09-14T19:58:08.493Z,15.60
2018-09-14T20:00:37.699Z,15.40
2018-09-14T20:03:06.785Z,15.40
2018-09-14T20:05:36.484Z,15.40
2018-09-14T20:08:05.724Z,15.40
2018-09-14T20:10:35.039Z,15.40
2018-09-14T20:13:05.263Z,15.50
2018-09-14T20:15:34.412Z,15.50
2018-09-14T20:18:03.671Z,15.50
2018-09-14T20:20:32.952Z,15.50
2018-09-14T20:23:02.022Z,15.60
2018-09-14T20:25:31.529Z,15.70
2018-09-14T20:28:00.720Z,15.70
2018-09-14T20:33:04.795Z,15.70
2018-09-14T20:35:33.828Z,15.70
2018-09-14T20:38:03.101Z,15.70
2018-09-14T20:40:32.281Z,15.60
2018-09-14T20:43:01.343Z,15.60
2018-09-14T20:45:30.619Z,15.60
2018-09-14T20:47:59.574Z,15.60
2018-09-14T20:50:28.580Z,15.60
2018-09-14T20:52:58.890Z,15.60
2018-09-14T20:55:27.910Z,15.60
2018-09-14T20:57:56.957Z,15.60
2018-09-14T21:00:26.308Z,15.60
2018-09-14T21:02:55.729Z,15.50
2018-09-14T21:05:24.930Z,15.50
2018-09-14T21:07:54.346Z,15.50
2018-09-14T21:10:23.551Z,15.50
2018-09-14T21:12:52.530Z,15.40
2018-09-14T21:15:22.005Z,15.40
2018-09-14T21:17:51.023Z,15.30
2018-09-14T21:20:20.164Z,15.20
2018-09-14T21:22:49.868Z,15.10
2018-09-14T21:25:19.073Z,15.10
2018-09-14T21:27:48.104Z,15.00
2018-09-14T21:30:17.543Z,15.00
2018-09-14T21:32:47.463Z,15.00
2018-09-14T21:35:16.973Z,14.90
2018-09-14T21:37:46.373Z,14.90
2018-09-14T21:40:15.875Z,14.80
2018-09-14T21:42:46.232Z,14.80
2018-09-14T21:45:15.302Z,14.70
2018-09-14T21:47:45.061Z,14.60
2018-09-14T21:50:14.632Z,14.60
2018-09-14T21:52:43.710Z,14.60
2018-09-14T21:55:12.689Z,14.60
2018-09-14T21:57:42.112Z,14.60
2018-09-14T22:00:17.058Z,14.60
2018-09-14T22:02:46.377Z,14.60
2018-09-14T22:05:15.368Z,14.60
2018-09-14T22:07:45.338Z,14.60
2018-09-14T22:10:15.108Z,14.60
2018-09-14T22:12:44.444Z,14.60
2018-09-14T22:15:14.748Z,14.60
2018-09-14T22:17:43.971Z,14.60
2018-09-14T22:20:13.155Z,14.60
2018-09-14T22:22:43.161Z,14.60
2018-09-14T22:25:12.145Z,14.60
2018-09-14T22:27:41.127Z,14.60
2018-09-14T22:30:10.247Z,14.50
2018-09-14T22:32:40.566Z,14.50
2018-09-14T22:35:09.683Z,14.50
2018-09-14T22:37:38.712Z,14.40
2018-09-14T22:40:07.772Z,14.40
2018-09-14T22:42:36.782Z,14.40
2018-09-14T22:45:05.896Z,14.30
2018-09-14T22:47:34.947Z,14.30
2018-09-14T22:50:03.902Z,14.30
2018-09-14T22:52:33.656Z,14.30
2018-09-14T22:55:03.360Z,14.20
2018-09-14T22:57:32.972Z,14.20
2018-09-14T23:00:01.970Z,14.10
2018-09-14T23:02:30.994Z,14.00
2018-09-14T23:05:00.014Z,13.90
2018-09-14T23:07:29.114Z,13.90
2018-09-14T23:09:59.435Z,13.90
2018-09-14T23:12:28.385Z,13.80
2018-09-14T23:14:58.148Z,13.80
2018-09-14T23:17:27.441Z,13.80
2018-09-14T23:19:56.434Z,13.80
2018-09-14T23:22:26.238Z,13.80
2018-09-14T23:24:55.140Z,13.80
2018-09-14T23:27:24.032Z,13.70
2018-09-14T23:29:53.659Z,13.70
2018-09-14T23:32:22.769Z,13.60
2018-09-14T23:34:51.725Z,13.60
2018-09-14T23:37:20.727Z,13.50
2018-09-14T23:39:49.954Z,13.40
2018-09-14T23:42:19.401Z,13.40
2018-09-14T23:44:48.371Z,13.40
2018-09-14T23:47:17.410Z,13.30
2018-09-14T23:49:46.850Z,13.20
2018-09-14T23:52:16.380Z,13.20
2018-09-14T23:54:46.066Z,13.10
2018-09-14T23:57:15.693Z,13.10
2018-09-14T23:59:45.628Z,13.10
